Humidity-temperature Sensor

Selected Measurement Type: Air Temperature

 
Air Temperature [°C]     6 entries per hour
Showing data from 8/3/2020 (00:00:00 Z) to 8/2/2020 (00:01:00 Z)
Previous Next [ Day | 3-Days | 7-Days ]
First Last
Prev [ Day | 3-Days | 7-Days ] Next
First Last

Start Time:     :
End Time:     :     
Time (in GMT) :00 :50 :40 :30 :20 :10
Previous Next [ Day | 3-Days | 7-Days ]
First Last
Prev [ Day | 3-Days | 7-Days ] Next
First Last


123 => good data
MM => data is determined as missing
-- => data not received/configured
Back to Top Back to Top
8/3/2020 00:00 to 23:10 24.55 24.51 24.80 24.79 24.44 24.59
8/2/2020 23:00 to 22:10 24.51 24.49 24.79 24.70 24.63 24.49
8/2/2020 22:00 to 21:10 24.56 24.52 24.40 24.49 24.47 24.53
8/2/2020 21:00 to 20:10 24.38 24.58 24.50 24.40 24.49 24.40
8/2/2020 20:00 to 19:10 24.45 24.75 24.68 24.71 24.53 24.50
8/2/2020 19:00 to 18:10 24.54 24.47 24.58 24.66 24.72 24.56
8/2/2020 18:00 to 17:10 24.40 24.52 24.60 24.45 24.63 24.59
8/2/2020 17:00 to 16:10 24.37 24.56 24.56 24.74 24.72 24.57
8/2/2020 16:00 to 15:10 24.53 24.57 24.46 24.44 24.54 24.53
8/2/2020 15:00 to 14:10 24.40 24.51 24.39 24.24 24.32 24.28
8/2/2020 14:00 to 13:10 24.31 24.18 24.14 24.14 24.34 24.17
8/2/2020 13:00 to 12:10 24.45 24.36 24.12 24.09 24.15 24.21
8/2/2020 12:00 to 11:10 24.13 24.15 24.25 24.08 24.03 24.04
8/2/2020 11:00 to 10:10 24.21 24.25 24.22 24.20 24.25 24.26
8/2/2020 10:00 to 9:10 24.27 24.11 24.21 24.10 24.21 24.33
8/2/2020 09:00 to 8:10 24.34 24.32 24.27 24.32 24.33 24.24
8/2/2020 08:00 to 7:10 24.47 24.44 24.36 24.45 24.57 24.43
8/2/2020 07:00 to 6:10 24.45 24.52 24.39 24.51 24.40 24.33
8/2/2020 06:00 to 5:10 24.37 24.49 24.45 24.44 24.68 24.56
8/2/2020 05:00 to 4:10 24.36 24.45 24.37 24.48 24.31 24.47
8/2/2020 04:00 to 3:10 24.55 24.55 24.62 24.42 24.45 24.48
8/2/2020 03:00 to 2:10 24.51 24.56 24.41 24.46 24.37 24.42
8/2/2020 02:00 to 1:10 24.51 24.43 24.31 24.48 24.45 24.47
8/2/2020 01:00 to 0:10 24.68 24.59 24.53 24.44 24.71 24.64